Aérodrome :
LOGIN :

S'inscrire | Disclaimer

   EN    FR    IT 

 










Légende :    VFR   VFR Marginal   IFR   IFR Intensif   IFR Très Intensif
Visi : 
Plafond : 
>= 8 km
>= 3000ft
5 à 8 km
1000 à 3000 ft
1500m à 5 km
500 à 1000 ft
800 à 1500m
200 à 500 ft
< 800m
< 200 ft
Symboles :   Orages  Brouillard  Fortes neiges  Fortes précipitations  Vent > 20 kt
SIGMETs :   Divers  Orages  Givrage  Turbulence  Onde Orograph.  Cendres Volcan.







- Altitude de l'aérodrome : 24 ft
- Code IATA : FAO


LPFR - Faro

DERNIER METAR :
  • 292100Z 30014KT CAVOK 15/09 Q1014

METARs EXPIRÉS :
  • 292030Z 29014KT 9999 FEW020 16/10 Q1014
  • 292000Z 28018KT 9999 FEW020 16/10 Q1013
  • 291930Z 27016KT 9999 FEW020 17/10 Q1013
  • 291900Z 26016KT 9999 FEW020 18/12 Q1012
  • 291830Z 26016KT 9999 FEW018 18/12 Q1012

TAF TAF LPFR
Valide du 29 à 18h jusqu'au 30 à 18h UTC


291700Z 2918/3018 27015KT CAVOK
BECMG 2919/2922 30008KT 9999 SCT030
TEMPO 3000/3016 SCT012 BKN035
BECMG 3005/3008 25017KT
PROB30
TEMPO 3013/3016 6000 -RA BKN012
BECMG 3016/3018 31012KT
Pas de NOTAMs connus pour ce terrain.



MET'MAP, la Météo Aéronautique d'un coup d'oeil ! - Copyright ORBIFLY Décembre 2007 - Disclaimer

ORBIFLY MET'MAP TEAM :

Programmation & Développement : Alexandra Zaïnal
Conception & Développement : Baudouin d'Aumeries
Co-Programmation & Développement : Marc-Olivier Méhu
Soutien technique & logistique : Manuel Goepfert

Contact : metmap@orbifly.com




SOURCES & CREDITS :

   NOAA